createdAt,value
2018-04-15T00:02:24.253Z,5.13
2018-04-15T00:04:51.892Z,5.53
2018-04-15T00:07:19.522Z,5.80
2018-04-15T00:09:47.182Z,4.67
2018-04-15T00:12:15.325Z,5.13
2018-04-15T00:14:43.888Z,4.67
2018-04-15T00:17:11.625Z,5.00
2018-04-15T00:19:40.042Z,5.03
2018-04-15T00:22:08.492Z,4.97
2018-04-15T00:24:36.115Z,5.30
2018-04-15T00:27:04.537Z,6.93
2018-04-15T00:29:32.929Z,4.67
2018-04-15T00:32:01.326Z,5.07
2018-04-15T00:34:29.741Z,6.67
2018-04-15T00:36:58.157Z,5.23
2018-04-15T00:39:26.570Z,6.03
2018-04-15T00:41:54.207Z,5.97
2018-04-15T00:44:21.833Z,5.60
2018-04-15T00:46:49.450Z,7.33
2018-04-15T00:49:17.139Z,6.13
2018-04-15T00:51:44.754Z,5.80
2018-04-15T00:54:17.322Z,5.30
2018-04-15T00:56:44.947Z,5.80
2018-04-15T00:59:12.595Z,5.83
2018-04-15T01:01:40.277Z,5.60
2018-04-15T01:04:07.894Z,5.83
2018-04-15T01:06:35.590Z,8.67
2018-04-15T01:09:03.261Z,6.10
2018-04-15T01:11:31.685Z,5.70
2018-04-15T01:13:59.420Z,5.73
2018-04-15T01:16:27.290Z,7.10
2018-04-15T01:18:54.945Z,5.73
2018-04-15T01:21:23.597Z,6.00
2018-04-15T01:23:52.014Z,5.97
2018-04-15T01:26:19.669Z,5.70
2018-04-15T01:28:47.321Z,6.10
2018-04-15T01:31:14.921Z,5.80
2018-04-15T01:33:42.600Z,6.53
2018-04-15T01:36:10.242Z,6.10
2018-04-15T01:38:37.868Z,6.33
2018-04-15T01:41:05.553Z,7.63
2018-04-15T01:43:33.186Z,5.90
2018-04-15T01:46:01.629Z,6.13
2018-04-15T01:48:29.268Z,5.57
2018-04-15T01:50:56.915Z,7.67
2018-04-15T01:53:24.578Z,6.20
2018-04-15T01:55:52.174Z,6.40
2018-04-15T01:58:19.797Z,6.60
2018-04-15T02:00:47.395Z,6.20
2018-04-15T02:03:15.046Z,6.00
2018-04-15T02:05:42.677Z,5.47
2018-04-15T02:08:11.094Z,5.83
2018-04-15T02:10:39.533Z,6.30
2018-04-15T02:13:07.209Z,7.13
2018-04-15T02:15:34.869Z,6.23
2018-04-15T02:18:03.389Z,12.37
2018-04-15T02:20:31.879Z,5.87
2018-04-15T02:23:00.365Z,7.00
2018-04-15T02:25:28.010Z,6.17
2018-04-15T02:27:55.613Z,6.57
2018-04-15T02:30:23.280Z,6.20
2018-04-15T02:32:50.898Z,6.20
2018-04-15T02:35:18.541Z,6.47
2018-04-15T02:37:46.161Z,6.17
2018-04-15T02:40:13.841Z,6.30
2018-04-15T02:42:41.539Z,6.17
2018-04-15T02:45:09.176Z,5.67
2018-04-15T02:47:36.894Z,9.43
2018-04-15T02:50:04.646Z,5.77
2018-04-15T02:52:33.081Z,6.07
2018-04-15T02:55:00.753Z,6.00
2018-04-15T02:57:28.409Z,5.70
2018-04-15T02:59:56.841Z,5.53
2018-04-15T03:02:24.476Z,5.80
2018-04-15T03:04:52.157Z,5.90
2018-04-15T03:07:19.778Z,5.50
2018-04-15T03:09:47.471Z,6.27
2018-04-15T03:12:15.217Z,5.80
2018-04-15T03:14:42.840Z,5.83
2018-04-15T03:17:10.479Z,5.67
2018-04-15T03:19:38.120Z,6.37
2018-04-15T03:22:06.517Z,9.60
2018-04-15T03:24:34.916Z,5.63
2018-04-15T03:27:03.333Z,6.73
2018-04-15T03:29:31.778Z,5.87
2018-04-15T03:31:59.399Z,6.00
2018-04-15T03:34:27.050Z,5.93
2018-04-15T03:36:54.669Z,6.20
2018-04-15T03:39:22.342Z,6.53
2018-04-15T03:41:49.973Z,7.00
2018-04-15T03:44:18.436Z,6.23
2018-04-15T03:46:46.117Z,6.33
2018-04-15T03:49:13.746Z,6.30
2018-04-15T03:51:41.426Z,6.77
2018-04-15T03:54:09.190Z,6.17
2018-04-15T03:56:36.928Z,6.67
2018-04-15T03:59:05.320Z,7.07
2018-04-15T04:01:32.949Z,6.60
2018-04-15T04:04:00.569Z,6.00
2018-04-15T04:06:43.064Z,6.70
2018-04-15T04:09:10.690Z,6.17
2018-04-15T04:11:38.277Z,6.50
2018-04-15T04:14:05.934Z,7.03
2018-04-15T04:16:33.637Z,6.97
2018-04-15T04:19:13.099Z,6.90
2018-04-15T04:21:53.681Z,6.40
2018-04-15T04:24:33.322Z,6.63
2018-04-15T04:27:00.978Z,6.20
2018-04-15T04:29:28.657Z,6.63
2018-04-15T04:31:56.250Z,9.00
2018-04-15T04:34:23.944Z,5.70
2018-04-15T04:36:51.602Z,6.37
2018-04-15T04:39:34.414Z,6.00
2018-04-15T04:42:02.834Z,6.00
2018-04-15T04:44:30.478Z,6.47
2018-04-15T04:46:58.224Z,6.83
2018-04-15T04:49:26.690Z,6.67
2018-04-15T04:51:54.362Z,6.80
2018-04-15T04:54:22.004Z,7.13
2018-04-15T04:56:49.673Z,6.47
2018-04-15T04:59:18.057Z,6.63
2018-04-15T05:01:45.714Z,6.53
2018-04-15T05:04:14.169Z,6.73
2018-04-15T05:06:42.579Z,6.33
2018-04-15T05:09:10.997Z,6.30
2018-04-15T05:11:38.624Z,6.67
2018-04-15T05:14:07.537Z,8.30
2018-04-15T05:16:35.196Z,6.73
2018-04-15T05:19:03.703Z,6.47
2018-04-15T05:21:31.359Z,6.20
2018-04-15T05:23:59.797Z,7.17
2018-04-15T05:26:27.451Z,8.80
2018-04-15T05:28:55.866Z,6.83
2018-04-15T05:31:23.528Z,6.80
2018-04-15T05:33:51.156Z,8.43
2018-04-15T05:36:18.857Z,6.23
2018-04-15T05:38:46.610Z,6.23
2018-04-15T05:41:14.257Z,5.93
2018-04-15T05:43:41.887Z,6.27
2018-04-15T05:46:10.414Z,6.00
2018-04-15T05:48:38.051Z,6.70
2018-04-15T05:51:05.734Z,6.20
2018-04-15T05:53:34.149Z,6.40
2018-04-15T05:56:01.802Z,6.87
2018-04-15T05:58:29.456Z,7.20
2018-04-15T06:00:57.854Z,7.00
2018-04-15T06:03:26.285Z,7.70
2018-04-15T06:05:53.922Z,7.00
2018-04-15T06:08:21.599Z,6.73
2018-04-15T06:10:50.006Z,5.43
2018-04-15T06:13:17.654Z,6.07
2018-04-15T06:15:45.334Z,5.30
2018-04-15T06:18:12.974Z,5.97
2018-04-15T06:20:40.655Z,6.93
2018-04-15T06:23:09.359Z,7.30
2018-04-15T06:25:37.882Z,6.70
2018-04-15T06:31:23.513Z,6.37
2018-04-15T06:33:51.905Z,6.23
2018-04-15T06:36:20.327Z,5.43
2018-04-15T06:38:48.742Z,8.53
2018-04-15T06:41:16.365Z,5.70
2018-04-15T06:43:44.010Z,5.93
2018-04-15T06:46:12.914Z,6.17
2018-04-15T06:48:41.359Z,5.97
2018-04-15T06:51:09.045Z,6.17
2018-04-15T06:53:36.729Z,7.23
2018-04-15T06:56:04.371Z,6.30
2018-04-15T06:58:32.101Z,5.73
2018-04-15T07:00:59.745Z,6.90
2018-04-15T07:03:27.337Z,7.57
2018-04-15T07:05:55.028Z,5.33
2018-04-15T07:08:22.636Z,6.90
2018-04-15T07:10:51.504Z,4.87
2018-04-15T07:13:19.137Z,5.40
2018-04-15T07:15:47.590Z,4.80
2018-04-15T07:18:15.285Z,4.50
2018-04-15T07:20:42.898Z,4.50
2018-04-15T07:23:10.561Z,3.87
2018-04-15T07:25:38.218Z,4.83
2018-04-15T07:28:05.893Z,4.93
2018-04-15T07:30:33.494Z,4.17
2018-04-15T07:33:01.137Z,4.73
2018-04-15T07:35:28.835Z,3.77
2018-04-15T07:37:57.234Z,3.90
2018-04-15T07:40:24.941Z,4.00
2018-04-15T07:42:53.329Z,4.03
2018-04-15T07:45:20.997Z,4.30
2018-04-15T07:47:48.657Z,4.27
2018-04-15T07:50:16.314Z,4.50
2018-04-15T07:52:43.981Z,4.40
2018-04-15T07:55:12.384Z,3.50
2018-04-15T07:57:40.820Z,3.67
2018-04-15T08:14:41.853Z,4.93
2018-04-15T08:28:50.825Z,4.77
2018-04-15T08:31:18.482Z,5.00
2018-04-15T08:33:46.160Z,5.00
2018-04-15T08:36:13.789Z,5.03
2018-04-15T08:38:41.452Z,4.77
2018-04-15T08:41:09.089Z,4.63
2018-04-15T08:43:36.885Z,4.27
2018-04-15T08:46:04.550Z,4.80
2018-04-15T08:48:32.980Z,5.40
2018-04-15T08:51:00.916Z,3.77
2018-04-15T08:53:28.861Z,4.30
2018-04-15T08:55:56.522Z,4.30
2018-04-15T08:58:24.970Z,4.70
2018-04-15T09:00:52.641Z,10.27
2018-04-15T09:03:20.529Z,6.23
2018-04-15T09:05:48.206Z,5.67
2018-04-15T09:08:16.618Z,5.03
2018-04-15T09:10:44.284Z,5.57
2018-04-15T09:13:11.902Z,4.60
2018-04-15T09:16:01.156Z,6.13
2018-04-15T09:18:29.488Z,5.33
2018-04-15T09:20:57.513Z,5.30
2018-04-15T09:23:25.742Z,4.67
2018-04-15T09:25:53.446Z,5.03
2018-04-15T09:28:26.626Z,4.13
2018-04-15T09:30:59.985Z,3.63
2018-04-15T09:33:27.924Z,3.53
2018-04-15T09:35:56.653Z,4.50
2018-04-15T09:38:25.364Z,3.60
2018-04-15T09:40:53.243Z,3.47
2018-04-15T09:43:21.185Z,4.00
2018-04-15T09:45:49.113Z,4.13
2018-04-15T09:48:16.966Z,3.80
2018-04-15T09:50:44.923Z,4.10
2018-04-15T09:53:12.827Z,4.07
2018-04-15T09:55:40.749Z,3.83
2018-04-15T09:58:08.868Z,4.40
2018-04-15T10:00:36.865Z,4.47
2018-04-15T10:03:05.586Z,4.97
2018-04-15T10:05:33.477Z,4.80
2018-04-15T10:08:01.454Z,3.60
2018-04-15T10:10:29.329Z,3.57
2018-04-15T10:13:18.208Z,4.00
2018-04-15T10:15:46.206Z,4.23
2018-04-15T10:18:15.039Z,4.60
2018-04-15T10:20:43.014Z,5.77
2018-04-15T10:23:10.962Z,5.57
2018-04-15T10:25:39.674Z,3.50
2018-04-15T10:28:07.555Z,5.30
2018-04-15T10:30:35.522Z,4.03
2018-04-15T10:33:03.430Z,3.70
2018-04-15T10:35:32.136Z,3.60
2018-04-15T10:38:00.033Z,4.60
2018-04-15T10:40:27.975Z,4.23
2018-04-15T10:42:55.883Z,3.57
2018-04-15T10:45:25.207Z,5.50
2018-04-15T10:47:53.469Z,3.53
2018-04-15T10:50:21.367Z,6.13
2018-04-15T10:52:49.306Z,4.17
2018-04-15T10:55:17.157Z,3.00
2018-04-15T10:57:45.147Z,3.10
2018-04-15T11:00:13.059Z,3.40
2018-04-15T11:02:40.981Z,3.80
2018-04-15T11:05:08.881Z,3.10
2018-04-15T11:07:36.784Z,3.33
2018-04-15T11:10:04.629Z,4.47
2018-04-15T11:12:32.537Z,3.80
2018-04-15T11:15:00.513Z,3.23
2018-04-15T11:17:28.513Z,6.57
2018-04-15T11:19:56.472Z,4.20
2018-04-15T11:22:25.273Z,5.40
2018-04-15T11:24:54.608Z,4.37
2018-04-15T11:27:22.486Z,3.60
2018-04-15T11:38:43.652Z,4.13
2018-04-15T11:41:12.495Z,4.50
2018-04-15T11:43:40.504Z,4.33
2018-04-15T11:46:09.080Z,4.27
2018-04-15T11:48:37.005Z,7.33
2018-04-15T11:51:05.677Z,4.80
2018-04-15T11:53:34.384Z,4.20
2018-04-15T11:56:02.277Z,3.47
2018-04-15T11:58:31.045Z,4.27
2018-04-15T12:00:58.983Z,4.10
2018-04-15T12:03:26.945Z,5.60
2018-04-15T12:05:55.243Z,4.70
2018-04-15T12:08:23.822Z,3.33
2018-04-15T12:10:51.846Z,3.20
2018-04-15T12:13:19.803Z,2.93
2018-04-15T12:15:47.828Z,3.27
2018-04-15T12:18:16.631Z,3.17
2018-04-15T12:20:44.545Z,3.00
2018-04-15T12:23:13.255Z,3.07
2018-04-15T12:25:41.927Z,4.03
2018-04-15T12:28:10.639Z,3.53
2018-04-15T12:30:43.939Z,3.90
2018-04-15T12:33:11.953Z,2.67
2018-04-15T12:35:39.998Z,3.83
2018-04-15T12:38:08.000Z,3.30
2018-04-15T12:40:36.715Z,4.30
2018-04-15T12:43:04.607Z,3.53
2018-04-15T12:45:33.258Z,2.33
2018-04-15T12:48:01.912Z,3.03
2018-04-15T12:50:29.821Z,2.90
2018-04-15T12:52:57.723Z,3.37
2018-04-15T12:55:26.084Z,2.80
2018-04-15T12:57:54.956Z,4.00
2018-04-15T13:00:22.840Z,5.30
2018-04-15T13:02:50.883Z,3.93
2018-04-15T13:05:18.778Z,6.03
2018-04-15T13:07:47.613Z,2.97
2018-04-15T13:10:16.045Z,4.50
2018-04-15T13:12:44.061Z,4.07
2018-04-15T13:21:12.858Z,2.77
2018-04-15T13:23:41.658Z,3.53
2018-04-15T13:26:09.675Z,4.90
2018-04-15T13:28:46.116Z,4.87
2018-04-15T13:31:14.163Z,5.17
2018-04-15T13:33:42.183Z,10.70
2018-04-15T13:36:10.189Z,4.00
2018-04-15T13:38:38.229Z,5.17
2018-04-15T13:41:07.167Z,6.10
2018-04-15T13:43:39.670Z,4.03
2018-04-15T13:46:07.680Z,5.27
2018-04-15T13:48:35.735Z,4.20
2018-04-15T13:51:03.785Z,3.57
2018-04-15T13:53:31.872Z,4.80
2018-04-15T13:56:00.671Z,4.20
2018-04-15T13:58:28.613Z,4.23
2018-04-15T14:00:56.691Z,4.73
2018-04-15T14:03:24.670Z,4.13
2018-04-15T14:05:54.687Z,4.27
2018-04-15T14:08:23.645Z,4.40
2018-04-15T14:10:51.781Z,3.47
2018-04-15T14:13:20.639Z,4.67
2018-04-15T14:15:48.655Z,2.97
2018-04-15T14:18:16.780Z,5.17
2018-04-15T14:20:44.842Z,3.87
2018-04-15T14:23:33.344Z,6.63
2018-04-15T14:26:03.308Z,4.10
2018-04-15T14:28:31.959Z,3.90
2018-04-15T14:31:04.407Z,4.17
2018-04-15T14:33:33.399Z,4.07
2018-04-15T14:36:07.133Z,4.20
2018-04-15T14:38:35.100Z,4.50
2018-04-15T14:41:03.702Z,4.40
2018-04-15T14:43:32.134Z,4.13
2018-04-15T14:46:00.846Z,3.03
2018-04-15T14:48:28.728Z,3.33
2018-04-15T14:50:56.668Z,4.03
2018-04-15T14:53:24.551Z,3.43
2018-04-15T14:55:52.451Z,3.47
2018-04-15T14:58:20.384Z,4.03
2018-04-15T15:00:48.233Z,3.23
2018-04-15T15:03:16.202Z,3.57
2018-04-15T15:05:44.150Z,2.70
2018-04-15T15:08:12.839Z,3.47
2018-04-15T15:10:41.716Z,3.63
2018-04-15T15:13:09.665Z,4.63
2018-04-15T15:15:37.595Z,3.80
2018-04-15T15:18:05.488Z,3.63
2018-04-15T15:20:33.327Z,3.10
2018-04-15T15:23:01.593Z,3.00
2018-04-15T15:25:30.294Z,3.00
2018-04-15T15:27:58.243Z,3.17
2018-04-15T15:33:26.327Z,2.50
2018-04-15T15:35:54.285Z,2.40
2018-04-15T15:38:22.171Z,2.77
2018-04-15T15:40:50.317Z,3.77
2018-04-15T15:43:18.326Z,5.10
2018-04-15T15:45:47.055Z,4.23
2018-04-15T15:48:15.014Z,3.07
2018-04-15T15:50:42.905Z,4.70
2018-04-15T15:53:11.012Z,5.10
2018-04-15T15:55:38.874Z,3.33
2018-04-15T15:58:06.868Z,3.60
2018-04-15T16:00:34.769Z,4.00
2018-04-15T16:03:03.901Z,2.73
2018-04-15T16:05:32.248Z,3.77
2018-04-15T16:08:00.530Z,3.80
2018-04-15T16:10:28.454Z,2.30
2018-04-15T16:18:54.728Z,4.57
2018-04-15T16:21:40.471Z,3.17
2018-04-15T16:24:08.755Z,2.20
2018-04-15T16:26:38.312Z,3.87
2018-04-15T16:29:06.240Z,3.97
2018-04-15T16:31:34.147Z,2.77
2018-04-15T16:34:03.855Z,2.37
2018-04-15T16:36:32.695Z,2.93
2018-04-15T16:39:00.544Z,3.17
2018-04-15T16:41:28.503Z,3.67
2018-04-15T16:43:56.425Z,2.20
2018-04-15T16:46:27.751Z,3.90
2018-04-15T16:48:56.593Z,4.90
2018-04-15T16:51:24.497Z,2.30
2018-04-15T16:53:53.681Z,2.10
2018-04-15T16:56:22.602Z,2.63
2018-04-15T16:58:51.409Z,4.20
2018-04-15T17:01:19.504Z,3.97
2018-04-15T17:03:48.242Z,4.50
2018-04-15T17:06:16.113Z,2.50
2018-04-15T17:08:44.844Z,5.20
2018-04-15T17:11:14.593Z,2.03
2018-04-15T17:14:03.473Z,2.27
2018-04-15T17:16:31.387Z,2.30
2018-04-15T17:18:59.270Z,3.10
2018-04-15T17:21:29.696Z,2.93
2018-04-15T17:23:57.600Z,4.37
2018-04-15T17:26:25.523Z,3.77
2018-04-15T17:28:56.064Z,3.87
2018-04-15T17:31:24.528Z,3.70
2018-04-15T17:33:52.780Z,4.30
2018-04-15T17:36:21.725Z,4.00
2018-04-15T17:38:51.734Z,6.17
2018-04-15T17:41:19.626Z,6.00
2018-04-15T17:43:48.367Z,6.80
2018-04-15T17:46:16.950Z,5.23
2018-04-15T17:48:44.847Z,4.73
2018-04-15T17:51:12.796Z,5.20
2018-04-15T17:53:40.761Z,4.10
2018-04-15T17:56:08.704Z,5.63
2018-04-15T17:58:37.619Z,3.87
2018-04-15T18:01:06.731Z,5.77
2018-04-15T18:03:54.298Z,4.17
2018-04-15T18:06:22.214Z,3.70
2018-04-15T18:08:50.142Z,3.77
2018-04-15T18:11:18.860Z,4.00
2018-04-15T18:13:48.353Z,5.43
2018-04-15T18:16:17.026Z,4.97
2018-04-15T18:18:44.942Z,4.77
2018-04-15T18:21:12.841Z,6.07
2018-04-15T18:23:40.740Z,4.53
2018-04-15T18:26:10.139Z,4.40
2018-04-15T18:28:38.157Z,4.57
2018-04-15T18:31:06.378Z,4.40
2018-04-15T18:33:34.547Z,3.67
2018-04-15T18:36:02.612Z,4.10
2018-04-15T18:38:30.934Z,4.07
2018-04-15T18:40:59.625Z,4.73
2018-04-15T18:43:30.705Z,5.20
2018-04-15T18:45:59.875Z,5.03
2018-04-15T18:48:27.711Z,4.30
2018-04-15T18:50:55.599Z,4.40
2018-04-15T18:53:23.610Z,5.10
2018-04-15T18:55:51.409Z,5.00
2018-04-15T18:58:19.259Z,4.87
2018-04-15T19:00:47.047Z,4.23
2018-04-15T19:03:14.865Z,5.30
2018-04-15T19:05:42.717Z,5.07
2018-04-15T19:08:10.500Z,4.47
2018-04-15T19:10:44.189Z,7.53
2018-04-15T19:13:11.789Z,4.27
2018-04-15T19:15:39.389Z,6.73
2018-04-15T19:18:07.722Z,6.60
2018-04-15T19:20:35.324Z,5.10
2018-04-15T19:23:02.933Z,4.83
2018-04-15T19:25:30.508Z,3.77
2018-04-15T19:27:58.113Z,3.20
2018-04-15T19:30:25.707Z,3.10
2018-04-15T19:32:54.178Z,4.97
2018-04-15T19:35:41.992Z,3.57
2018-04-15T19:38:10.303Z,3.70
2018-04-15T19:40:38.358Z,3.47
2018-04-15T19:43:06.649Z,3.67
2018-04-15T19:45:35.485Z,3.67
2018-04-15T19:48:03.369Z,6.33
2018-04-15T19:50:31.155Z,3.90
2018-04-15T19:52:59.176Z,4.53
2018-04-15T19:55:27.773Z,4.27
2018-04-15T19:57:55.621Z,3.57
2018-04-15T20:00:23.301Z,6.27
2018-04-15T20:02:51.099Z,3.30
2018-04-15T20:05:19.794Z,3.20
2018-04-15T20:07:47.496Z,4.07
2018-04-15T20:10:15.144Z,5.60
2018-04-15T20:12:42.970Z,4.20
2018-04-15T20:15:10.839Z,4.00
2018-04-15T20:17:38.500Z,3.93
2018-04-15T20:20:06.353Z,4.20
2018-04-15T20:22:34.177Z,4.03
2018-04-15T20:25:02.757Z,4.43
2018-04-15T20:27:30.530Z,3.73
2018-04-15T20:29:59.640Z,5.10
2018-04-15T20:32:27.460Z,3.33
2018-04-15T20:34:55.223Z,3.20
2018-04-15T20:37:23.260Z,2.93
2018-04-15T20:39:51.784Z,3.30
2018-04-15T20:42:20.221Z,3.13
2018-04-15T20:44:48.097Z,3.03
2018-04-15T20:47:16.717Z,3.50
2018-04-15T20:49:44.410Z,5.50
2018-04-15T20:52:12.025Z,3.30
2018-04-15T20:54:39.714Z,4.80
2018-04-15T20:57:07.425Z,3.47
2018-04-15T20:59:35.075Z,3.73
2018-04-15T21:02:02.789Z,2.83
2018-04-15T21:04:30.447Z,3.27
2018-04-15T21:06:58.239Z,4.97
2018-04-15T21:09:25.940Z,3.23
2018-04-15T21:11:53.594Z,3.97
2018-04-15T21:14:21.410Z,4.27
2018-04-15T21:16:49.063Z,4.67
2018-04-15T21:19:16.770Z,3.73
2018-04-15T21:21:44.496Z,3.87
2018-04-15T21:24:12.178Z,4.10
2018-04-15T21:26:39.801Z,4.33
2018-04-15T21:29:08.219Z,4.10
2018-04-15T21:31:35.850Z,3.90
2018-04-15T21:34:03.531Z,5.67
2018-04-15T21:36:31.157Z,4.67
2018-04-15T21:38:59.594Z,7.53
2018-04-15T21:41:27.374Z,5.40
2018-04-15T21:43:55.810Z,5.43
2018-04-15T21:46:23.481Z,5.30
2018-04-15T21:48:51.133Z,4.97
2018-04-15T21:51:19.565Z,4.43
2018-04-15T21:53:47.283Z,5.03
2018-04-15T21:56:14.928Z,5.43
2018-04-15T21:58:43.377Z,4.90
2018-04-15T22:01:11.064Z,5.10
2018-04-15T22:03:38.737Z,5.17
2018-04-15T22:06:06.449Z,4.23
2018-04-15T22:08:34.137Z,5.97
2018-04-15T22:11:01.852Z,5.17
2018-04-15T22:13:29.481Z,4.77
2018-04-15T22:15:57.175Z,5.90
2018-04-15T22:18:24.829Z,8.07
2018-04-15T22:20:52.529Z,6.20
2018-04-15T22:23:20.987Z,8.77
2018-04-15T22:25:49.007Z,5.93
2018-04-15T22:28:16.686Z,5.67
2018-04-15T22:30:44.337Z,6.00
2018-04-15T22:33:12.021Z,4.80
2018-04-15T22:35:39.809Z,4.83
2018-04-15T22:38:08.245Z,4.93
2018-04-15T22:40:35.864Z,5.67
2018-04-15T22:43:03.536Z,5.10
2018-04-15T22:45:31.230Z,5.53
2018-04-15T22:48:04.830Z,5.77
2018-04-15T22:50:37.248Z,5.17
2018-04-15T22:53:04.969Z,5.00
2018-04-15T22:55:32.639Z,5.40
2018-04-15T22:58:00.289Z,5.57
2018-04-15T23:00:27.966Z,5.37
2018-04-15T23:02:55.583Z,5.30
2018-04-15T23:05:23.244Z,5.53
2018-04-15T23:07:50.855Z,5.00
2018-04-15T23:10:18.495Z,5.13
2018-04-15T23:12:46.905Z,5.10
2018-04-15T23:15:15.374Z,5.40
2018-04-15T23:17:43.021Z,5.33
2018-04-15T23:20:10.739Z,5.40
2018-04-15T23:22:38.409Z,6.20
2018-04-15T23:25:06.054Z,5.53
2018-04-15T23:27:34.479Z,5.30
2018-04-15T23:30:02.102Z,5.30
2018-04-15T23:32:29.774Z,6.20
2018-04-15T23:34:57.423Z,5.63
2018-04-15T23:37:25.081Z,5.33
2018-04-15T23:39:52.760Z,6.63
2018-04-15T23:42:20.441Z,5.43
2018-04-15T23:44:48.066Z,5.10
2018-04-15T23:47:16.466Z,5.50
2018-04-15T23:49:44.863Z,6.10
2018-04-15T23:52:13.230Z,4.63
2018-04-15T23:54:40.910Z,4.77
2018-04-15T23:57:08.640Z,4.50
2018-04-15T23:59:37.030Z,5.00
